sensor_id;sensor_type;location;lat;lon;timestamp;P1;durP1;ratioP1;P2;durP2;ratioP2
42912;SDS011;50720;54.324;18.558;2022-08-05T00:00:17;10.65;;;7.43;;
42912;SDS011;50720;54.324;18.558;2022-08-05T00:03:04;8.65;;;7.28;;
42912;SDS011;50720;54.324;18.558;2022-08-05T00:05:41;8.60;;;7.78;;
42912;SDS011;50720;54.324;18.558;2022-08-05T00:08:32;10.13;;;7.32;;
42912;SDS011;50720;54.324;18.558;2022-08-05T00:11:03;12.25;;;7.00;;
42912;SDS011;50720;54.324;18.558;2022-08-05T00:13:49;12.52;;;6.30;;
42912;SDS011;50720;54.324;18.558;2022-08-05T00:16:19;7.57;;;6.60;;
42912;SDS011;50720;54.324;18.558;2022-08-05T00:19:02;10.38;;;7.65;;
42912;SDS011;50720;54.324;18.558;2022-08-05T00:21:32;8.73;;;6.53;;
42912;SDS011;50720;54.324;18.558;2022-08-05T00:24:04;12.10;;;7.13;;
42912;SDS011;50720;54.324;18.558;2022-08-05T00:26:37;9.40;;;6.20;;
42912;SDS011;50720;54.324;18.558;2022-08-05T00:29:17;7.00;;;6.32;;
42912;SDS011;50720;54.324;18.558;2022-08-05T00:31:49;7.18;;;6.50;;
42912;SDS011;50720;54.324;18.558;2022-08-05T00:34:39;10.52;;;6.80;;
42912;SDS011;50720;54.324;18.558;2022-08-05T00:37:28;9.13;;;6.35;;
42912;SDS011;50720;54.324;18.558;2022-08-05T00:40:20;8.93;;;5.63;;
42912;SDS011;50720;54.324;18.558;2022-08-05T00:42:56;7.05;;;6.22;;
42912;SDS011;50720;54.324;18.558;2022-08-05T00:45:26;8.15;;;5.97;;
42912;SDS011;50720;54.324;18.558;2022-08-05T00:48:06;10.23;;;6.88;;
42912;SDS011;50720;54.324;18.558;2022-08-05T00:50:36;10.60;;;6.40;;
42912;SDS011;50720;54.324;18.558;2022-08-05T00:53:08;6.68;;;5.78;;
42912;SDS011;50720;54.324;18.558;2022-08-05T00:55:59;8.77;;;6.55;;
42912;SDS011;50720;54.324;18.558;2022-08-05T00:58:29;7.47;;;6.75;;
42912;SDS011;50720;54.324;18.558;2022-08-05T01:00:59;8.23;;;5.80;;
42912;SDS011;50720;54.324;18.558;2022-08-05T01:03:34;8.02;;;6.75;;
42912;SDS011;50720;54.324;18.558;2022-08-05T01:06:04;8.87;;;7.20;;
42912;SDS011;50720;54.324;18.558;2022-08-05T01:08:41;13.50;;;6.68;;
42912;SDS011;50720;54.324;18.558;2022-08-05T01:11:16;11.32;;;8.07;;
42912;SDS011;50720;54.324;18.558;2022-08-05T01:14:02;10.13;;;7.45;;
42912;SDS011;50720;54.324;18.558;2022-08-05T01:16:37;11.70;;;7.20;;
42912;SDS011;50720;54.324;18.558;2022-08-05T01:19:22;9.98;;;7.55;;
42912;SDS011;50720;54.324;18.558;2022-08-05T01:22:22;7.97;;;7.15;;
42912;SDS011;50720;54.324;18.558;2022-08-05T01:28:29;10.15;;;7.82;;
42912;SDS011;50720;54.324;18.558;2022-08-05T01:31:07;12.05;;;7.97;;
42912;SDS011;50720;54.324;18.558;2022-08-05T01:33:41;11.48;;;8.20;;
42912;SDS011;50720;54.324;18.558;2022-08-05T01:36:19;8.18;;;7.40;;
42912;SDS011;50720;54.324;18.558;2022-08-05T01:38:54;8.38;;;6.78;;
42912;SDS011;50720;54.324;18.558;2022-08-05T01:41:29;12.98;;;7.95;;
42912;SDS011;50720;54.324;18.558;2022-08-05T01:44:05;10.18;;;8.65;;
42912;SDS011;50720;54.324;18.558;2022-08-05T01:46:37;11.75;;;7.55;;
42912;SDS011;50720;54.324;18.558;2022-08-05T01:49:15;16.50;;;8.43;;
42912;SDS011;50720;54.324;18.558;2022-08-05T01:51:52;10.50;;;8.30;;
42912;SDS011;50720;54.324;18.558;2022-08-05T01:54:28;10.27;;;8.95;;
42912;SDS011;50720;54.324;18.558;2022-08-05T01:57:13;14.43;;;9.10;;
42912;SDS011;50720;54.324;18.558;2022-08-05T02:00:09;9.13;;;8.05;;
42912;SDS011;50720;54.324;18.558;2022-08-05T02:02:42;11.57;;;8.20;;
42912;SDS011;50720;54.324;18.558;2022-08-05T02:05:21;11.43;;;10.15;;
42912;SDS011;50720;54.324;18.558;2022-08-05T02:07:55;9.68;;;8.68;;
42912;SDS011;50720;54.324;18.558;2022-08-05T02:10:28;10.45;;;8.57;;
42912;SDS011;50720;54.324;18.558;2022-08-05T02:13:04;14.57;;;9.70;;
42912;SDS011;50720;54.324;18.558;2022-08-05T02:15:45;14.52;;;9.00;;
42912;SDS011;50720;54.324;18.558;2022-08-05T02:18:19;11.00;;;9.55;;
42912;SDS011;50720;54.324;18.558;2022-08-05T02:21:02;10.90;;;8.85;;
42912;SDS011;50720;54.324;18.558;2022-08-05T02:23:42;14.98;;;9.68;;
42912;SDS011;50720;54.324;18.558;2022-08-05T02:26:19;10.52;;;9.45;;
42912;SDS011;50720;54.324;18.558;2022-08-05T02:28:53;14.32;;;9.65;;
42912;SDS011;50720;54.324;18.558;2022-08-05T02:31:27;13.43;;;9.57;;
42912;SDS011;50720;54.324;18.558;2022-08-05T02:34:02;12.27;;;9.15;;
42912;SDS011;50720;54.324;18.558;2022-08-05T02:36:37;13.52;;;9.15;;
42912;SDS011;50720;54.324;18.558;2022-08-05T02:39:09;10.23;;;8.82;;
42912;SDS011;50720;54.324;18.558;2022-08-05T02:44:27;12.20;;;9.48;;
42912;SDS011;50720;54.324;18.558;2022-08-05T02:46:59;14.35;;;10.18;;
42912;SDS011;50720;54.324;18.558;2022-08-05T02:49:33;10.10;;;9.18;;
42912;SDS011;50720;54.324;18.558;2022-08-05T02:52:08;10.57;;;9.25;;
42912;SDS011;50720;54.324;18.558;2022-08-05T02:54:40;10.40;;;9.23;;
42912;SDS011;50720;54.324;18.558;2022-08-05T02:57:18;14.45;;;9.00;;
42912;SDS011;50720;54.324;18.558;2022-08-05T03:00:12;12.95;;;9.32;;
42912;SDS011;50720;54.324;18.558;2022-08-05T03:02:44;11.13;;;9.20;;
42912;SDS011;50720;54.324;18.558;2022-08-05T03:05:16;10.50;;;9.30;;
42912;SDS011;50720;54.324;18.558;2022-08-05T03:08:08;12.68;;;9.68;;
42912;SDS011;50720;54.324;18.558;2022-08-05T03:10:41;10.63;;;9.52;;
42912;SDS011;50720;54.324;18.558;2022-08-05T03:13:31;12.43;;;10.07;;
42912;SDS011;50720;54.324;18.558;2022-08-05T03:16:20;13.63;;;10.53;;
42912;SDS011;50720;54.324;18.558;2022-08-05T03:18:51;13.10;;;10.43;;
42912;SDS011;50720;54.324;18.558;2022-08-05T03:21:21;12.25;;;9.82;;
42912;SDS011;50720;54.324;18.558;2022-08-05T03:23:58;12.57;;;9.48;;
42912;SDS011;50720;54.324;18.558;2022-08-05T03:26:30;10.15;;;9.02;;
42912;SDS011;50720;54.324;18.558;2022-08-05T03:29:00;13.50;;;10.33;;
42912;SDS011;50720;54.324;18.558;2022-08-05T03:31:29;9.90;;;8.90;;
42912;SDS011;50720;54.324;18.558;2022-08-05T03:34:22;11.45;;;9.00;;
42912;SDS011;50720;54.324;18.558;2022-08-05T03:36:52;10.75;;;9.55;;
42912;SDS011;50720;54.324;18.558;2022-08-05T03:41:53;14.30;;;10.77;;
42912;SDS011;50720;54.324;18.558;2022-08-05T03:44:23;11.68;;;9.10;;
42912;SDS011;50720;54.324;18.558;2022-08-05T03:46:55;12.65;;;9.10;;
42912;SDS011;50720;54.324;18.558;2022-08-05T03:49:26;12.70;;;9.60;;
42912;SDS011;50720;54.324;18.558;2022-08-05T03:52:18;10.90;;;9.20;;
42912;SDS011;50720;54.324;18.558;2022-08-05T03:55:10;12.00;;;9.45;;
42912;SDS011;50720;54.324;18.558;2022-08-05T03:58:07;17.90;;;9.23;;
42912;SDS011;50720;54.324;18.558;2022-08-05T04:00:39;9.52;;;8.55;;
42912;SDS011;50720;54.324;18.558;2022-08-05T04:03:18;9.63;;;8.73;;
42912;SDS011;50720;54.324;18.558;2022-08-05T04:05:56;15.57;;;9.40;;
42912;SDS011;50720;54.324;18.558;2022-08-05T04:08:26;9.73;;;8.52;;
42912;SDS011;50720;54.324;18.558;2022-08-05T04:11:03;13.10;;;9.48;;
42912;SDS011;50720;54.324;18.558;2022-08-05T04:13:38;15.82;;;10.43;;
42912;SDS011;50720;54.324;18.558;2022-08-05T04:16:19;12.25;;;9.77;;
42912;SDS011;50720;54.324;18.558;2022-08-05T04:18:52;10.60;;;9.55;;
42912;SDS011;50720;54.324;18.558;2022-08-05T04:21:25;12.90;;;10.02;;
42912;SDS011;50720;54.324;18.558;2022-08-05T04:24:15;14.60;;;10.23;;
42912;SDS011;50720;54.324;18.558;2022-08-05T04:26:48;12.75;;;9.70;;
42912;SDS011;50720;54.324;18.558;2022-08-05T04:29:18;13.98;;;9.30;;
42912;SDS011;50720;54.324;18.558;2022-08-05T04:31:48;10.43;;;8.40;;
42912;SDS011;50720;54.324;18.558;2022-08-05T04:34:18;16.23;;;8.00;;
42912;SDS011;50720;54.324;18.558;2022-08-05T04:37:01;13.35;;;8.30;;
42912;SDS011;50720;54.324;18.558;2022-08-05T04:39:31;9.73;;;7.88;;
42912;SDS011;50720;54.324;18.558;2022-08-05T04:42:02;13.32;;;7.18;;
42912;SDS011;50720;54.324;18.558;2022-08-05T04:44:32;11.75;;;7.32;;
42912;SDS011;50720;54.324;18.558;2022-08-05T04:47:03;10.77;;;7.32;;
42912;SDS011;50720;54.324;18.558;2022-08-05T04:49:36;8.05;;;6.63;;
42912;SDS011;50720;54.324;18.558;2022-08-05T04:52:27;9.25;;;7.63;;
42912;SDS011;50720;54.324;18.558;2022-08-05T04:55:00;11.15;;;6.88;;
42912;SDS011;50720;54.324;18.558;2022-08-05T04:57:42;12.20;;;7.00;;
42912;SDS011;50720;54.324;18.558;2022-08-05T05:00:20;11.43;;;6.82;;
42912;SDS011;50720;54.324;18.558;2022-08-05T05:02:50;9.52;;;6.78;;
42912;SDS011;50720;54.324;18.558;2022-08-05T05:05:19;13.98;;;6.65;;
42912;SDS011;50720;54.324;18.558;2022-08-05T05:07:59;12.82;;;7.07;;
42912;SDS011;50720;54.324;18.558;2022-08-05T05:10:30;13.15;;;6.53;;
42912;SDS011;50720;54.324;18.558;2022-08-05T05:13:01;9.75;;;6.35;;
42912;SDS011;50720;54.324;18.558;2022-08-05T05:15:31;9.87;;;5.43;;
42912;SDS011;50720;54.324;18.558;2022-08-05T05:18:21;8.73;;;5.68;;
42912;SDS011;50720;54.324;18.558;2022-08-05T05:20:59;7.55;;;5.70;;
42912;SDS011;50720;54.324;18.558;2022-08-05T05:23:32;16.33;;;5.95;;
42912;SDS011;50720;54.324;18.558;2022-08-05T05:26:21;8.85;;;5.20;;
42912;SDS011;50720;54.324;18.558;2022-08-05T05:28:59;8.05;;;5.72;;
42912;SDS011;50720;54.324;18.558;2022-08-05T05:31:40;6.75;;;5.55;;
42912;SDS011;50720;54.324;18.558;2022-08-05T05:34:12;14.48;;;5.55;;
42912;SDS011;50720;54.324;18.558;2022-08-05T05:36:49;5.57;;;4.97;;
42912;SDS011;50720;54.324;18.558;2022-08-05T05:39:21;8.85;;;6.25;;
42912;SDS011;50720;54.324;18.558;2022-08-05T05:42:00;10.63;;;5.53;;
42912;SDS011;50720;54.324;18.558;2022-08-05T05:44:30;7.88;;;6.18;;
42912;SDS011;50720;54.324;18.558;2022-08-05T05:47:08;13.60;;;5.53;;
42912;SDS011;50720;54.324;18.558;2022-08-05T05:49:48;9.18;;;6.28;;
42912;SDS011;50720;54.324;18.558;2022-08-05T05:52:22;14.63;;;5.63;;
42912;SDS011;50720;54.324;18.558;2022-08-05T05:55:01;10.30;;;5.72;;
42912;SDS011;50720;54.324;18.558;2022-08-05T05:57:39;8.50;;;5.32;;
42912;SDS011;50720;54.324;18.558;2022-08-05T06:02:57;9.75;;;5.50;;
42912;SDS011;50720;54.324;18.558;2022-08-05T06:05:28;10.05;;;5.70;;
42912;SDS011;50720;54.324;18.558;2022-08-05T06:07:58;18.45;;;5.43;;
42912;SDS011;50720;54.324;18.558;2022-08-05T06:10:31;14.18;;;5.55;;
42912;SDS011;50720;54.324;18.558;2022-08-05T06:13:09;8.63;;;5.75;;
42912;SDS011;50720;54.324;18.558;2022-08-05T06:18:29;9.82;;;5.07;;
42912;SDS011;50720;54.324;18.558;2022-08-05T06:21:05;12.32;;;5.65;;
42912;SDS011;50720;54.324;18.558;2022-08-05T06:23:44;12.45;;;5.22;;
42912;SDS011;50720;54.324;18.558;2022-08-05T06:26:17;10.30;;;4.68;;
42912;SDS011;50720;54.324;18.558;2022-08-05T06:28:50;15.13;;;6.40;;
42912;SDS011;50720;54.324;18.558;2022-08-05T06:31:21;9.48;;;4.88;;
42912;SDS011;50720;54.324;18.558;2022-08-05T06:33:56;8.00;;;4.75;;
42912;SDS011;50720;54.324;18.558;2022-08-05T06:36:35;8.13;;;5.15;;
42912;SDS011;50720;54.324;18.558;2022-08-05T06:39:24;13.35;;;5.22;;
42912;SDS011;50720;54.324;18.558;2022-08-05T06:44:25;9.77;;;6.10;;
42912;SDS011;50720;54.324;18.558;2022-08-05T06:49:28;9.00;;;5.22;;
42912;SDS011;50720;54.324;18.558;2022-08-05T06:52:18;18.23;;;4.75;;
42912;SDS011;50720;54.324;18.558;2022-08-05T06:55:04;9.38;;;5.28;;
42912;SDS011;50720;54.324;18.558;2022-08-05T06:57:36;8.90;;;5.10;;
42912;SDS011;50720;54.324;18.558;2022-08-05T07:00:25;6.13;;;5.43;;
42912;SDS011;50720;54.324;18.558;2022-08-05T07:02:56;6.57;;;4.45;;
42912;SDS011;50720;54.324;18.558;2022-08-05T07:05:26;6.13;;;4.88;;
42912;SDS011;50720;54.324;18.558;2022-08-05T07:08:07;8.85;;;5.05;;
42912;SDS011;50720;54.324;18.558;2022-08-05T07:10:37;6.65;;;4.32;;
42912;SDS011;50720;54.324;18.558;2022-08-05T07:13:22;6.60;;;4.07;;
42912;SDS011;50720;54.324;18.558;2022-08-05T07:16:26;8.63;;;3.75;;
42912;SDS011;50720;54.324;18.558;2022-08-05T07:19:38;11.13;;;4.63;;
42912;SDS011;50720;54.324;18.558;2022-08-05T07:22:28;6.67;;;3.90;;
42912;SDS011;50720;54.324;18.558;2022-08-05T07:24:58;11.60;;;3.72;;
42912;SDS011;50720;54.324;18.558;2022-08-05T07:27:49;6.82;;;3.35;;
42912;SDS011;50720;54.324;18.558;2022-08-05T07:30:31;5.25;;;3.95;;
42912;SDS011;50720;54.324;18.558;2022-08-05T07:33:05;10.73;;;4.00;;
42912;SDS011;50720;54.324;18.558;2022-08-05T07:35:43;8.15;;;3.85;;
42912;SDS011;50720;54.324;18.558;2022-08-05T07:38:34;10.35;;;3.97;;
42912;SDS011;50720;54.324;18.558;2022-08-05T07:41:11;6.20;;;3.45;;
42912;SDS011;50720;54.324;18.558;2022-08-05T07:44:04;6.90;;;3.67;;
42912;SDS011;50720;54.324;18.558;2022-08-05T07:46:47;7.82;;;4.43;;
42912;SDS011;50720;54.324;18.558;2022-08-05T07:49:17;6.15;;;3.65;;
42912;SDS011;50720;54.324;18.558;2022-08-05T07:51:47;6.30;;;3.92;;
42912;SDS011;50720;54.324;18.558;2022-08-05T07:54:21;9.05;;;3.50;;
42912;SDS011;50720;54.324;18.558;2022-08-05T07:56:59;8.85;;;3.72;;
42912;SDS011;50720;54.324;18.558;2022-08-05T08:02:24;6.82;;;3.67;;
42912;SDS011;50720;54.324;18.558;2022-08-05T08:05:14;8.15;;;3.17;;
42912;SDS011;50720;54.324;18.558;2022-08-05T08:10:26;7.25;;;3.30;;
42912;SDS011;50720;54.324;18.558;2022-08-05T08:12:56;6.13;;;2.58;;
42912;SDS011;50720;54.324;18.558;2022-08-05T08:15:27;8.43;;;3.03;;
42912;SDS011;50720;54.324;18.558;2022-08-05T08:18:19;3.03;;;2.33;;
42912;SDS011;50720;54.324;18.558;2022-08-05T08:20:49;4.40;;;3.33;;
42912;SDS011;50720;54.324;18.558;2022-08-05T08:23:30;4.30;;;2.53;;
42912;SDS011;50720;54.324;18.558;2022-08-05T08:26:20;4.13;;;3.13;;
42912;SDS011;50720;54.324;18.558;2022-08-05T08:28:57;6.43;;;3.10;;
42912;SDS011;50720;54.324;18.558;2022-08-05T08:31:46;3.55;;;2.83;;
42912;SDS011;50720;54.324;18.558;2022-08-05T08:34:19;4.05;;;2.45;;
42912;SDS011;50720;54.324;18.558;2022-08-05T08:36:58;9.48;;;3.17;;
42912;SDS011;50720;54.324;18.558;2022-08-05T08:39:32;3.33;;;2.75;;
42912;SDS011;50720;54.324;18.558;2022-08-05T08:42:04;4.10;;;2.42;;
42912;SDS011;50720;54.324;18.558;2022-08-05T08:44:56;6.45;;;3.03;;
42912;SDS011;50720;54.324;18.558;2022-08-05T08:47:48;5.10;;;2.83;;
42912;SDS011;50720;54.324;18.558;2022-08-05T08:50:41;6.88;;;2.67;;
42912;SDS011;50720;54.324;18.558;2022-08-05T08:53:34;5.35;;;2.58;;
42912;SDS011;50720;54.324;18.558;2022-08-05T08:56:11;3.33;;;2.47;;
42912;SDS011;50720;54.324;18.558;2022-08-05T08:58:41;6.13;;;2.22;;
42912;SDS011;50720;54.324;18.558;2022-08-05T09:01:15;6.30;;;2.05;;
42912;SDS011;50720;54.324;18.558;2022-08-05T09:03:48;3.25;;;2.38;;
42912;SDS011;50720;54.324;18.558;2022-08-05T09:06:26;2.65;;;2.33;;
42912;SDS011;50720;54.324;18.558;2022-08-05T09:08:58;3.85;;;2.17;;
42912;SDS011;50720;54.324;18.558;2022-08-05T09:11:31;5.65;;;2.83;;
42912;SDS011;50720;54.324;18.558;2022-08-05T09:14:19;4.50;;;1.92;;
42912;SDS011;50720;54.324;18.558;2022-08-05T09:17:10;4.90;;;2.63;;
42912;SDS011;50720;54.324;18.558;2022-08-05T09:20:00;5.15;;;2.42;;
42912;SDS011;50720;54.324;18.558;2022-08-05T09:25:35;6.00;;;2.42;;
42912;SDS011;50720;54.324;18.558;2022-08-05T09:28:26;5.47;;;1.88;;
42912;SDS011;50720;54.324;18.558;2022-08-05T09:31:00;6.57;;;2.45;;
42912;SDS011;50720;54.324;18.558;2022-08-05T09:33:53;3.15;;;2.40;;
42912;SDS011;50720;54.324;18.558;2022-08-05T09:36:36;5.28;;;2.35;;
42912;SDS011;50720;54.324;18.558;2022-08-05T09:39:23;3.00;;;2.70;;
42912;SDS011;50720;54.324;18.558;2022-08-05T09:42:12;6.65;;;2.45;;
42912;SDS011;50720;54.324;18.558;2022-08-05T09:44:53;6.88;;;2.03;;
42912;SDS011;50720;54.324;18.558;2022-08-05T09:47:43;5.13;;;2.25;;
42912;SDS011;50720;54.324;18.558;2022-08-05T09:50:32;3.03;;;1.90;;
42912;SDS011;50720;54.324;18.558;2022-08-05T09:53:04;7.57;;;2.30;;
42912;SDS011;50720;54.324;18.558;2022-08-05T09:55:39;5.40;;;2.25;;
42912;SDS011;50720;54.324;18.558;2022-08-05T09:58:25;3.58;;;2.03;;
42912;SDS011;50720;54.324;18.558;2022-08-05T10:00:57;6.03;;;2.42;;
42912;SDS011;50720;54.324;18.558;2022-08-05T10:03:45;9.38;;;2.65;;
42912;SDS011;50720;54.324;18.558;2022-08-05T10:06:26;6.95;;;2.55;;
42912;SDS011;50720;54.324;18.558;2022-08-05T10:09:08;6.75;;;2.20;;
42912;SDS011;50720;54.324;18.558;2022-08-05T10:11:56;4.97;;;2.47;;
42912;SDS011;50720;54.324;18.558;2022-08-05T10:18:03;4.93;;;2.00;;
42912;SDS011;50720;54.324;18.558;2022-08-05T10:20:35;3.83;;;1.83;;
42912;SDS011;50720;54.324;18.558;2022-08-05T10:23:11;3.25;;;2.00;;
42912;SDS011;50720;54.324;18.558;2022-08-05T10:26:02;4.35;;;2.15;;
42912;SDS011;50720;54.324;18.558;2022-08-05T10:28:42;7.50;;;2.55;;
42912;SDS011;50720;54.324;18.558;2022-08-05T10:31:14;8.02;;;2.30;;
42912;SDS011;50720;54.324;18.558;2022-08-05T10:34:05;6.45;;;2.60;;
42912;SDS011;50720;54.324;18.558;2022-08-05T10:36:36;2.92;;;1.75;;
42912;SDS011;50720;54.324;18.558;2022-08-05T10:39:09;4.25;;;2.03;;
42912;SDS011;50720;54.324;18.558;2022-08-05T10:42:06;4.72;;;2.13;;
42912;SDS011;50720;54.324;18.558;2022-08-05T10:44:46;8.00;;;2.10;;
42912;SDS011;50720;54.324;18.558;2022-08-05T10:47:16;5.05;;;2.10;;
42912;SDS011;50720;54.324;18.558;2022-08-05T10:50:00;8.77;;;2.05;;
42912;SDS011;50720;54.324;18.558;2022-08-05T10:52:52;11.20;;;2.28;;
42912;SDS011;50720;54.324;18.558;2022-08-05T10:55:26;5.25;;;2.08;;
42912;SDS011;50720;54.324;18.558;2022-08-05T10:58:07;9.40;;;2.10;;
42912;SDS011;50720;54.324;18.558;2022-08-05T11:16:25;3.28;;;1.80;;
42912;SDS011;50720;54.324;18.558;2022-08-05T11:25:28;5.70;;;2.03;;
42912;SDS011;50720;54.324;18.558;2022-08-05T11:31:17;8.88;;;2.10;;
42912;SDS011;50720;54.324;18.558;2022-08-05T11:34:20;11.98;;;2.75;;
42912;SDS011;50720;54.324;18.558;2022-08-05T11:37:05;4.03;;;1.60;;
42912;SDS011;50720;54.324;18.558;2022-08-05T11:39:54;3.05;;;1.90;;
42912;SDS011;50720;54.324;18.558;2022-08-05T11:42:30;3.13;;;1.80;;
42912;SDS011;50720;54.324;18.558;2022-08-05T11:45:06;2.95;;;2.50;;
42912;SDS011;50720;54.324;18.558;2022-08-05T11:47:54;3.63;;;2.20;;
42912;SDS011;50720;54.324;18.558;2022-08-05T11:50:24;5.82;;;1.95;;
42912;SDS011;50720;54.324;18.558;2022-08-05T11:52:55;5.95;;;1.88;;
42912;SDS011;50720;54.324;18.558;2022-08-05T11:55:35;6.07;;;2.00;;
42912;SDS011;50720;54.324;18.558;2022-08-05T11:58:06;1.98;;;1.77;;
42912;SDS011;50720;54.324;18.558;2022-08-05T12:00:37;3.72;;;2.00;;
42912;SDS011;50720;54.324;18.558;2022-08-05T12:03:18;4.47;;;2.45;;
42912;SDS011;50720;54.324;18.558;2022-08-05T12:05:58;4.60;;;2.80;;
42912;SDS011;50720;54.324;18.558;2022-08-05T12:08:39;7.30;;;2.28;;
42912;SDS011;50720;54.324;18.558;2022-08-05T12:11:18;8.65;;;2.08;;
42912;SDS011;50720;54.324;18.558;2022-08-05T12:13:55;2.95;;;1.50;;
42912;SDS011;50720;54.324;18.558;2022-08-05T12:16:31;6.90;;;1.98;;
42912;SDS011;50720;54.324;18.558;2022-08-05T12:19:07;3.55;;;2.10;;
42912;SDS011;50720;54.324;18.558;2022-08-05T12:21:57;9.23;;;1.95;;
42912;SDS011;50720;54.324;18.558;2022-08-05T12:24:27;6.22;;;1.75;;
42912;SDS011;50720;54.324;18.558;2022-08-05T12:26:57;4.78;;;1.95;;
42912;SDS011;50720;54.324;18.558;2022-08-05T12:29:57;3.22;;;1.90;;
42912;SDS011;50720;54.324;18.558;2022-08-05T12:32:30;6.00;;;1.60;;
42912;SDS011;50720;54.324;18.558;2022-08-05T12:35:07;4.10;;;2.30;;
42912;SDS011;50720;54.324;18.558;2022-08-05T12:37:44;6.18;;;2.50;;
42912;SDS011;50720;54.324;18.558;2022-08-05T12:40:19;3.42;;;2.03;;
42912;SDS011;50720;54.324;18.558;2022-08-05T12:42:55;2.92;;;1.70;;
42912;SDS011;50720;54.324;18.558;2022-08-05T12:45:27;6.50;;;1.80;;
42912;SDS011;50720;54.324;18.558;2022-08-05T12:48:15;5.38;;;1.65;;
42912;SDS011;50720;54.324;18.558;2022-08-05T12:51:09;2.60;;;1.85;;
42912;SDS011;50720;54.324;18.558;2022-08-05T12:54:01;5.85;;;1.63;;
42912;SDS011;50720;54.324;18.558;2022-08-05T12:56:46;4.00;;;1.98;;
42912;SDS011;50720;54.324;18.558;2022-08-05T12:59:17;4.22;;;1.83;;
42912;SDS011;50720;54.324;18.558;2022-08-05T13:02:00;6.15;;;2.20;;
42912;SDS011;50720;54.324;18.558;2022-08-05T13:04:34;4.10;;;1.48;;
42912;SDS011;50720;54.324;18.558;2022-08-05T13:07:20;9.75;;;2.10;;
42912;SDS011;50720;54.324;18.558;2022-08-05T13:10:13;6.38;;;1.80;;
42912;SDS011;50720;54.324;18.558;2022-08-05T13:12:47;4.00;;;1.88;;
42912;SDS011;50720;54.324;18.558;2022-08-05T13:15:27;6.63;;;1.77;;
42912;SDS011;50720;54.324;18.558;2022-08-05T13:18:15;3.17;;;1.83;;
42912;SDS011;50720;54.324;18.558;2022-08-05T13:20:46;6.72;;;1.80;;
42912;SDS011;50720;54.324;18.558;2022-08-05T13:23:18;4.72;;;1.50;;
42912;SDS011;50720;54.324;18.558;2022-08-05T13:25:49;9.30;;;3.10;;
42912;SDS011;50720;54.324;18.558;2022-08-05T13:28:27;5.28;;;2.40;;
42912;SDS011;50720;54.324;18.558;2022-08-05T13:30:58;6.03;;;2.00;;
42912;SDS011;50720;54.324;18.558;2022-08-05T13:33:40;15.48;;;2.53;;
42912;SDS011;50720;54.324;18.558;2022-08-05T13:36:30;4.10;;;2.10;;
42912;SDS011;50720;54.324;18.558;2022-08-05T13:39:03;4.55;;;1.58;;
42912;SDS011;50720;54.324;18.558;2022-08-05T13:41:50;4.35;;;1.80;;
42912;SDS011;50720;54.324;18.558;2022-08-05T13:44:22;6.90;;;2.03;;
42912;SDS011;50720;54.324;18.558;2022-08-05T13:49:35;9.45;;;2.55;;
42912;SDS011;50720;54.324;18.558;2022-08-05T13:52:12;5.15;;;2.35;;
42912;SDS011;50720;54.324;18.558;2022-08-05T13:54:45;8.65;;;2.35;;
42912;SDS011;50720;54.324;18.558;2022-08-05T13:57:19;6.65;;;2.30;;
42912;SDS011;50720;54.324;18.558;2022-08-05T13:59:50;5.07;;;2.17;;
42912;SDS011;50720;54.324;18.558;2022-08-05T14:02:25;10.18;;;2.00;;
42912;SDS011;50720;54.324;18.558;2022-08-05T14:04:57;2.45;;;1.65;;
42912;SDS011;50720;54.324;18.558;2022-08-05T14:07:45;5.07;;;1.95;;
42912;SDS011;50720;54.324;18.558;2022-08-05T14:10:33;4.80;;;1.52;;
42912;SDS011;50720;54.324;18.558;2022-08-05T14:13:03;7.25;;;2.20;;
42912;SDS011;50720;54.324;18.558;2022-08-05T14:15:34;5.55;;;2.25;;
42912;SDS011;50720;54.324;18.558;2022-08-05T14:18:24;4.05;;;1.95;;
42912;SDS011;50720;54.324;18.558;2022-08-05T14:20:54;3.13;;;1.92;;
42912;SDS011;50720;54.324;18.558;2022-08-05T14:23:26;6.65;;;1.95;;
42912;SDS011;50720;54.324;18.558;2022-08-05T14:26:05;9.40;;;2.15;;
42912;SDS011;50720;54.324;18.558;2022-08-05T14:28:54;7.40;;;2.00;;
42912;SDS011;50720;54.324;18.558;2022-08-05T14:31:26;5.60;;;1.92;;
42912;SDS011;50720;54.324;18.558;2022-08-05T14:36:50;6.25;;;2.13;;
42912;SDS011;50720;54.324;18.558;2022-08-05T14:39:20;5.75;;;1.92;;
42912;SDS011;50720;54.324;18.558;2022-08-05T14:41:54;8.45;;;2.28;;
42912;SDS011;50720;54.324;18.558;2022-08-05T14:44:44;6.38;;;2.22;;
42912;SDS011;50720;54.324;18.558;2022-08-05T14:47:14;6.05;;;1.70;;
42912;SDS011;50720;54.324;18.558;2022-08-05T14:50:04;3.33;;;1.92;;
42912;SDS011;50720;54.324;18.558;2022-08-05T14:52:47;6.68;;;2.10;;
42912;SDS011;50720;54.324;18.558;2022-08-05T14:55:24;11.57;;;2.63;;
42912;SDS011;50720;54.324;18.558;2022-08-05T14:58:08;3.40;;;2.10;;
42912;SDS011;50720;54.324;18.558;2022-08-05T15:00:40;4.13;;;2.40;;
42912;SDS011;50720;54.324;18.558;2022-08-05T15:03:27;5.43;;;1.98;;
42912;SDS011;50720;54.324;18.558;2022-08-05T15:06:00;4.43;;;2.13;;
42912;SDS011;50720;54.324;18.558;2022-08-05T15:08:39;8.48;;;2.13;;
42912;SDS011;50720;54.324;18.558;2022-08-05T15:11:29;5.30;;;2.30;;
42912;SDS011;50720;54.324;18.558;2022-08-05T15:14:21;5.47;;;2.30;;
42912;SDS011;50720;54.324;18.558;2022-08-05T15:17:08;5.68;;;2.40;;
42912;SDS011;50720;54.324;18.558;2022-08-05T15:19:59;9.18;;;2.30;;
42912;SDS011;50720;54.324;18.558;2022-08-05T15:22:28;6.70;;;3.00;;
42912;SDS011;50720;54.324;18.558;2022-08-05T15:27:40;4.60;;;2.05;;
42912;SDS011;50720;54.324;18.558;2022-08-05T15:30:19;9.05;;;2.78;;
42912;SDS011;50720;54.324;18.558;2022-08-05T15:32:49;5.78;;;2.25;;
42912;SDS011;50720;54.324;18.558;2022-08-05T15:35:20;3.25;;;2.28;;
42912;SDS011;50720;54.324;18.558;2022-08-05T15:37:52;4.22;;;1.63;;
42912;SDS011;50720;54.324;18.558;2022-08-05T15:40:42;7.82;;;2.58;;
42912;SDS011;50720;54.324;18.558;2022-08-05T15:43:32;7.40;;;1.90;;
42912;SDS011;50720;54.324;18.558;2022-08-05T15:46:13;3.13;;;1.95;;
42912;SDS011;50720;54.324;18.558;2022-08-05T15:48:44;9.27;;;2.53;;
42912;SDS011;50720;54.324;18.558;2022-08-05T15:51:27;3.53;;;2.45;;
42912;SDS011;50720;54.324;18.558;2022-08-05T15:54:17;4.95;;;2.05;;
42912;SDS011;50720;54.324;18.558;2022-08-05T15:57:01;5.90;;;2.08;;
42912;SDS011;50720;54.324;18.558;2022-08-05T15:59:34;3.50;;;1.92;;
42912;SDS011;50720;54.324;18.558;2022-08-05T16:02:06;3.90;;;2.35;;
42912;SDS011;50720;54.324;18.558;2022-08-05T16:04:46;4.55;;;2.15;;
42912;SDS011;50720;54.324;18.558;2022-08-05T16:07:16;6.40;;;2.20;;
42912;SDS011;50720;54.324;18.558;2022-08-05T16:09:49;6.57;;;2.38;;
42912;SDS011;50720;54.324;18.558;2022-08-05T16:12:19;3.85;;;2.42;;
42912;SDS011;50720;54.324;18.558;2022-08-05T16:14:50;3.42;;;2.13;;
42912;SDS011;50720;54.324;18.558;2022-08-05T16:17:21;6.68;;;2.08;;
42912;SDS011;50720;54.324;18.558;2022-08-05T16:19:51;5.18;;;2.13;;
42912;SDS011;50720;54.324;18.558;2022-08-05T16:22:33;3.67;;;2.97;;
42912;SDS011;50720;54.324;18.558;2022-08-05T16:25:04;5.70;;;2.53;;
42912;SDS011;50720;54.324;18.558;2022-08-05T16:27:36;13.52;;;3.22;;
42912;SDS011;50720;54.324;18.558;2022-08-05T16:30:26;8.30;;;2.47;;
42912;SDS011;50720;54.324;18.558;2022-08-05T16:32:59;16.00;;;4.55;;
42912;SDS011;50720;54.324;18.558;2022-08-05T16:35:29;4.45;;;2.50;;
42912;SDS011;50720;54.324;18.558;2022-08-05T16:38:08;5.82;;;2.42;;
42912;SDS011;50720;54.324;18.558;2022-08-05T16:40:51;7.65;;;2.80;;